sensor_id;sensor_type;location;lat;lon;timestamp;pressure;altitude;pressure_sealevel;temperature;humidity
15558;BME280;7880;50.110;9.372;2023-06-10T00:03:58;16.28114924301044;;;15.937;100.0
15558;BME280;7880;50.110;9.372;2023-06-10T00:09:02;16.361831430724123;;;15.937;100.0
15558;BME280;7880;50.110;9.372;2023-06-10T00:14:05;16.260978707723552;;;15.875;100.0
15558;BME280;7880;50.110;9.372;2023-06-10T00:19:09;16.230722913524367;;;15.875;100.0
15558;BME280;7880;50.110;9.372;2023-06-10T00:24:14;16.205509759695268;;;15.687;100.0
15558;BME280;7880;50.110;9.372;2023-06-10T00:29:20;16.170211356558138;;;15.75;100.0
15558;BME280;7880;50.110;9.372;2023-06-10T00:34:26;16.129870341863715;;;15.687;100.0
15558;BME280;7880;50.110;9.372;2023-06-10T00:39:33;15.837398542376468;;;15.437;100.0
15558;BME280;7880;50.110;9.372;2023-06-10T00:44:41;15.771844652667642;;;15.312;100.0
15558;BME280;7880;50.110;9.372;2023-06-10T00:49:41;15.761759443231858;;;15.375;100.0
15558;BME280;7880;50.110;9.372;2023-06-10T00:54:46;15.887824644852662;;;15.375;100.0
15558;BME280;7880;50.110;9.372;2023-06-10T00:59:52;15.76680204780423;;;15.375;100.0
15558;BME280;7880;50.110;9.372;2023-06-10T01:06:53;15.333139118325198;;;15.062;100.0
15558;BME280;7880;50.110;9.372;2023-06-10T01:12:05;15.433990770304808;;;15.0;100.0
15558;BME280;7880;50.110;9.372;2023-06-10T01:16:53;15.459203701489605;;;15.0;100.0
15558;BME280;7880;50.110;9.372;2023-06-10T01:21:57;15.469288876000792;;;15.062;100.0
15558;BME280;7880;50.110;9.372;2023-06-10T01:27:06;15.257500455738045;;;14.875;100.0
15558;BME280;7880;50.110;9.372;2023-06-10T01:32:33;15.41886301508639;;;15.125;100.0
15558;BME280;7880;50.110;9.372;2023-06-10T01:37:19;15.353309439407894;;;15.187;100.0
15558;BME280;7880;50.110;9.372;2023-06-10T01:42:20;15.665950011654058;;;15.312;100.0
15558;BME280;7880;50.110;9.372;2023-06-10T01:47:25;15.20203214479261;;;15.0;100.0
15558;BME280;7880;50.110;9.372;2023-06-10T01:52:30;14.859137913404265;;;14.562;100.0
15558;BME280;7880;50.110;9.372;2023-06-10T01:57:37;14.985201812628656;;;14.562;100.0
15558;BME280;7880;50.110;9.372;2023-06-10T02:02:39;15.15160643812851;;;14.75;100.0
15558;BME280;7880;50.110;9.372;2023-06-10T02:07:43;14.924691118299961;;;14.625;100.0
15558;BME280;7880;50.110;9.372;2023-06-10T02:12:49;15.030584860878298;;;14.75;100.0
15558;BME280;7880;50.110;9.372;2023-06-10T02:17:53;14.71794656222337;;;14.437;100.0
15558;BME280;7880;50.110;9.372;2023-06-10T02:22:56;14.702818930987268;;;14.437;100.0
15558;BME280;7880;50.110;9.372;2023-06-10T02:28:01;14.71794656222337;;;14.437;100.0
15558;BME280;7880;50.110;9.372;2023-06-10T02:33:05;14.607010660652303;;;14.312;100.0
15558;BME280;7880;50.110;9.372;2023-06-10T02:38:09;14.586840511864285;;;14.25;100.0
15558;BME280;7880;50.110;9.372;2023-06-10T02:43:14;14.617095736792544;;;14.25;100.0
15558;BME280;7880;50.110;9.372;2023-06-10T02:48:23;14.536415160266916;;;14.187;100.0
15558;BME280;7880;50.110;9.372;2023-06-10T02:53:24;14.430522016645408;;;14.187;100.0
15558;BME280;7880;50.110;9.372;2023-06-10T02:58:29;14.395224330626661;;;14.062;100.0
15558;BME280;7880;50.110;9.372;2023-06-10T03:03:34;14.289331358135678;;;14.062;100.0
15558;BME280;7880;50.110;9.372;2023-06-10T03:08:38;14.788542209292064;;;14.5;100.0
15558;BME280;7880;50.110;9.372;2023-06-10T03:13:44;14.778457113361219;;;14.562;100.0
15558;BME280;7880;50.110;9.372;2023-06-10T03:18:49;15.111265893751987;;;14.75;100.0
15558;BME280;7880;50.110;9.372;2023-06-10T03:23:53;15.252457880560542;;;15.0;100.0
15558;BME280;7880;50.110;9.372;2023-06-10T03:28:57;15.272628183016787;;;15.062;100.0
15558;BME280;7880;50.110;9.372;2023-06-10T03:34:13;15.686120409570867;;;15.375;100.0
15558;BME280;7880;50.110;9.372;2023-06-10T03:39:05;15.781929863267578;;;15.562;100.0
15558;BME280;7880;50.110;9.372;2023-06-10T03:44:09;15.988676937116542;;;15.812;100.0
15558;BME280;7880;50.110;9.372;2023-06-10T03:49:18;15.948336006241153;;;15.75;100.0
15558;BME280;7880;50.110;9.372;2023-06-10T03:54:18;15.857568979874486;;;15.687;100.0
15558;BME280;7880;50.110;9.372;2023-06-10T03:59:23;15.665950011654058;;;15.562;100.0
15558;BME280;7880;50.110;9.372;2023-06-10T04:04:29;15.933208161965013;;;15.687;100.0
15558;BME280;7880;50.110;9.372;2023-06-10T04:09:34;15.827313325373689;;;15.75;100.0
15558;BME280;7880;50.110;9.372;2023-06-10T04:14:38;15.867654200369724;;;15.687;100.0
15558;BME280;7880;50.110;9.372;2023-06-10T04:19:41;15.988676937116542;;;15.812;100.0
15558;BME280;7880;50.110;9.372;2023-06-10T04:24:45;16.25089344182634;;;16.0;100.0
15558;BME280;7880;50.110;9.372;2023-06-10T04:29:51;16.34670351485256;;;16.187;100.0
15558;BME280;7880;50.110;9.372;2023-06-10T04:34:55;16.442513692943614;;;16.312;100.0
15558;BME280;7880;50.110;9.372;2023-06-10T04:40:02;16.51815338144079;;;16.375;100.0
15558;BME280;7880;50.110;9.372;2023-06-10T04:45:06;16.55345192514942;;;16.437;100.0
15558;BME280;7880;50.110;9.372;2023-06-10T04:50:09;16.740030178800225;;;16.562;100.0
15558;BME280;7880;50.110;9.372;2023-06-10T04:55:13;16.835840788210042;;;16.687;100.0
15558;BME280;7880;50.110;9.372;2023-06-10T05:00:27;16.840883454773575;;;16.687;100.0
15558;BME280;7880;50.110;9.372;2023-06-10T05:05:25;17.017376967851305;;;16.875;100.0
15558;BME280;7880;50.110;9.372;2023-06-10T05:10:34;17.299767330341275;;;17.125;100.0
15558;BME280;7880;50.110;9.372;2023-06-10T05:15:34;17.420792050805176;;;17.25;100.0
15558;BME280;7880;50.110;9.372;2023-06-10T05:20:39;17.54181693890714;;;17.437;100.0
15558;BME280;7880;50.110;9.372;2023-06-10T05:25:42;17.587201315164567;;;17.437;100.0
15558;BME280;7880;50.110;9.372;2023-06-10T05:30:46;17.77378177634091;;;17.625;100.0
15558;BME280;7880;50.110;9.372;2023-06-10T05:35:55;17.90993533730507;;;17.75;100.0
15558;BME280;7880;50.110;9.372;2023-06-10T05:40:57;18.01078996369615;;;17.875;100.0
15558;BME280;7880;50.110;9.372;2023-06-10T05:46:00;18.23771329871961;;;18.062;100.0
15558;BME280;7880;50.110;9.372;2023-06-10T05:51:02;18.464637223095632;;;18.312;100.0
15558;BME280;7880;50.110;9.372;2023-06-10T05:56:07;18.550364192348205;;;18.437;100.0
15558;BME280;7880;50.110;9.372;2023-06-10T06:01:14;18.8176311657764;;;18.625;100.0
15558;BME280;7880;50.110;9.372;2023-06-10T06:06:14;19.04455659627565;;;18.875;97.18811397559182
15558;BME280;7880;50.110;9.372;2023-06-10T06:11:19;19.105070143943884;;;19.062;99.19380909584272
15558;BME280;7880;50.110;9.372;2023-06-10T06:16:25;19.669865276484053;;;19.437;92.06055969919856
15558;BME280;7880;50.110;9.372;2023-06-10T06:21:28;19.85645018501673;;;19.687;90.52733967687725
15558;BME280;7880;50.110;9.372;2023-06-10T06:26:31;19.972435599245365;;;19.875;92.04403354570992
15558;BME280;7880;50.110;9.372;2023-06-10T06:31:34;20.396035811310867;;;20.187;91.03035874328722
15558;BME280;7880;50.110;9.372;2023-06-10T06:36:38;20.663308430300095;;;20.5;90.21570143691481
15558;BME280;7880;50.110;9.372;2023-06-10T06:41:47;20.703651538142005;;;20.625;92.54547799491864
15558;BME280;7880;50.110;9.372;2023-06-10T06:46:46;20.854938358440997;;;20.75;89.04785726668115
15558;BME280;7880;50.110;9.372;2023-06-10T06:51:50;21.046568706841207;;;20.937;88.01809751546874
15558;BME280;7880;50.110;9.372;2023-06-10T06:56:53;21.39957308033481;;;21.312;82.3702833038071
15558;BME280;7880;50.110;9.372;2023-06-10T07:01:59;21.505474670469994;;;21.437;83.34396864555283
15558;BME280;7880;50.110;9.372;2023-06-10T07:07:04;21.485302929120373;;;21.437;87.93839134843047
15558;BME280;7880;50.110;9.372;2023-06-10T07:12:07;21.94925415828475;;;21.812;82.72656721836837
15558;BME280;7880;50.110;9.372;2023-06-10T07:17:16;22.2367034383351;;;22.187;79.23929773476155
15558;BME280;7880;50.110;9.372;2023-06-10T07:22:20;22.32747709164396;;;22.312;75.23020035796246
15558;BME280;7880;50.110;9.372;2023-06-10T07:27:18;22.266961312294008;;;22.312;78.33546049982202
15558;BME280;7880;50.110;9.372;2023-06-10T07:32:28;22.34260604302981;;;22.25;76.87903534656778
15558;BME280;7880;50.110;9.372;2023-06-10T07:37:27;22.473723731428617;;;22.375;76.33393624993813
15558;BME280;7880;50.110;9.372;2023-06-10T07:42:44;22.594755618419732;;;22.5;76.90089055779377
15558;BME280;7880;50.110;9.372;2023-06-10T07:47:37;22.735959698451914;;;22.625;77.5941162677682
15558;BME280;7880;50.110;9.372;2023-06-10T07:52:42;23.07888484276482;;;22.75;79.68963629339993
15558;BME280;7880;50.110;9.372;2023-06-10T07:57:49;23.210003635945032;;;23.125;75.29794291491118
15558;BME280;7880;50.110;9.372;2023-06-10T08:02:56;23.104099980019964;;;23.062;75.35954152238914
15558;BME280;7880;50.110;9.372;2023-06-10T08:08:01;23.21504667038098;;;23.062;78.48011860263975
15558;BME280;7880;50.110;9.372;2023-06-10T08:13:08;23.487370962114074;;;23.312;78.40172633293724
15558;BME280;7880;50.110;9.372;2023-06-10T08:18:10;23.487370962114074;;;23.375;75.2992021248625
15558;BME280;7880;50.110;9.372;2023-06-10T08:23:17;23.673964022338623;;;23.562;73.14618380894531
15558;BME280;7880;50.110;9.372;2023-06-10T08:28:21;23.97150513178203;;;23.812;73.2072623846224
15558;BME280;7880;50.110;9.372;2023-06-10T08:33:26;24.15809922577464;;;24.0;73.46059209576542
15558;BME280;7880;50.110;9.372;2023-06-10T08:38:29;24.011849766992963;;;23.937;70.93579096328317
15558;BME280;7880;50.110;9.372;2023-06-10T08:43:37;24.339650618570158;;;24.125;73.00772135562978
15558;BME280;7880;50.110;9.372;2023-06-10T08:48:42;24.173228494101203;;;24.125;72.2890421212002
15558;BME280;7880;50.110;9.372;2023-06-10T08:53:48;24.460685089981418;;;24.312;73.02790305123565
15558;BME280;7880;50.110;9.372;2023-06-10T08:58:48;24.26904725432978;;;24.25;70.16648188301772
15558;BME280;7880;50.110;9.372;2023-06-10T09:03:56;24.26904725432978;;;24.187;69.07933194278539
15558;BME280;7880;50.110;9.372;2023-06-10T09:08:57;24.536331719742158;;;24.375;69.91889636125258
15558;BME280;7880;50.110;9.372;2023-06-10T09:14:00;25.01542856223532;;;24.875;65.48510461152085
15558;BME280;7880;50.110;9.372;2023-06-10T09:19:08;24.91960898360703;;;24.875;65.51751146280425
15558;BME280;7880;50.110;9.372;2023-06-10T09:24:09;24.79353075074614;;;24.562;64.73611604180667
15558;BME280;7880;50.110;9.372;2023-06-10T09:29:20;24.97508346369141;;;24.75;65.27553900288595
15558;BME280;7880;50.110;9.372;2023-06-10T09:34:24;25.045687398366862;;;24.937;60.29268859832041
15558;BME280;7880;50.110;9.372;2023-06-10T09:39:26;25.166722847666826;;;25.0;62.258759341983875
15558;BME280;7880;50.110;9.372;2023-06-10T09:44:29;25.277672156790505;;;25.062;61.669415259180184
15558;BME280;7880;50.110;9.372;2023-06-10T09:49:37;25.24741324033239;;;25.062;61.269216625246706
15558;BME280;7880;50.110;9.372;2023-06-10T09:54:45;25.55000287639559;;;25.437;57.76324857460465
15558;BME280;7880;50.110;9.372;2023-06-10T09:59:52;25.33819002113887;;;25.25;57.929203462075286
15558;BME280;7880;50.110;9.372;2023-06-10T10:04:53;25.57017555605271;;;25.437;58.11969176139874
15558;BME280;7880;50.110;9.372;2023-06-10T10:09:51;25.615564102306962;;;25.437;57.28452004987001
15558;BME280;7880;50.110;9.372;2023-06-10T10:14:56;25.93328458616161;;;25.625;58.19561440943634
15558;BME280;7880;50.110;9.372;2023-06-10T10:20:04;25.842507187189767;;;25.75;62.294288977358896
15558;BME280;7880;50.110;9.372;2023-06-10T10:25:08;26.25604943507933;;;26.0;60.03341860875655
15558;BME280;7880;50.110;9.372;2023-06-10T10:30:11;26.185444522515173;;;25.937;57.55462092821605
15558;BME280;7880;50.110;9.372;2023-06-10T10:35:16;26.003889294998952;;;25.875;56.42964449550264
15558;BME280;7880;50.110;9.372;2023-06-10T10:40:16;26.54351288229227;;;26.312;56.95539368363814
15558;BME280;7880;50.110;9.372;2023-06-10T10:45:25;26.553599336207846;;;26.437;54.60776218403
15558;BME280;7880;50.110;9.372;2023-06-10T10:50:29;26.639334241492907;;;26.437;57.01410179454677
15558;BME280;7880;50.110;9.372;2023-06-10T10:55:34;26.356913694838294;;;26.25;56.24065094377228
15558;BME280;7880;50.110;9.372;2023-06-10T11:00:34;26.87132323044934;;;26.687;54.05317244515366
15558;BME280;7880;50.110;9.372;2023-06-10T11:05:40;26.639334241492907;;;26.437;55.082788448263415
15558;BME280;7880;50.110;9.372;2023-06-10T11:10:52;26.92175570084364;;;26.687;53.813153153736835
15558;BME280;7880;50.110;9.372;2023-06-10T11:15:49;26.39221621325705;;;26.25;54.278410635216325
15558;BME280;7880;50.110;9.372;2023-06-10T11:21:00;27.052880260074744;;;26.937;52.833679537944114
15558;BME280;7880;50.110;9.372;2023-06-10T11:26:33;26.967144949082286;;;26.75;54.75954722053432
15558;BME280;7880;50.110;9.372;2023-06-10T11:31:19;26.58890193408006;;;26.437;54.88889631292951
15558;BME280;7880;50.110;9.372;2023-06-10T11:36:18;26.820890789158874;;;26.562;54.540239348589026
15558;BME280;7880;50.110;9.372;2023-06-10T11:41:27;26.1350124770368;;;26.187;52.93682381581729
15558;BME280;7880;50.110;9.372;2023-06-10T11:46:29;25.903025442693615;;;25.687;54.261539436660335
15558;BME280;7880;50.110;9.372;2023-06-10T11:51:50;26.02910527626518;;;25.687;55.296375852075755
15558;BME280;7880;50.110;9.372;2023-06-10T11:56:38;26.356913694838294;;;26.062;54.046772099310665
15558;BME280;7880;50.110;9.372;2023-06-10T12:01:44;26.422475526109338;;;26.25;52.76472823274629
15558;BME280;7880;50.110;9.372;2023-06-10T12:06:52;26.094666861608857;;;25.937;54.958935413512876
15558;BME280;7880;50.110;9.372;2023-06-10T12:11:56;26.311524763540366;;;26.062;55.1148189505286
15558;BME280;7880;50.110;9.372;2023-06-10T12:16:59;26.836020518490113;;;26.5;53.585103168728615
15558;BME280;7880;50.110;9.372;2023-06-10T12:22:03;27.23443766688579;;;26.937;52.3828188256619
15558;BME280;7880;50.110;9.372;2023-06-10T12:27:11;27.718592595733934;;;27.5;52.4742849823434
15558;BME280;7880;50.110;9.372;2023-06-10T12:32:11;27.930411220534005;;;27.812;49.598533090323976
15558;BME280;7880;50.110;9.372;2023-06-10T12:37:22;27.09322631788091;;;27.125;52.56553953316739
15558;BME280;7880;50.110;9.372;2023-06-10T12:42:22;26.679680108377944;;;26.562;52.99238621184078
15558;BME280;7880;50.110;9.372;2023-06-10T12:47:31;26.245963015506277;;;26.187;53.02810925647515
15558;BME280;7880;50.110;9.372;2023-06-10T12:52:28;26.291351912752724;;;26.0;55.048278867126086
15558;BME280;7880;50.110;9.372;2023-06-10T12:57:32;26.44264840716496;;;26.437;52.825738949251665
15558;BME280;7880;50.110;9.372;2023-06-10T13:02:36;26.649420706467936;;;26.437;53.67234608087933
15558;BME280;7880;50.110;9.372;2023-06-10T13:07:43;26.805761062446983;;;26.625;52.54583216000459
15558;BME280;7880;50.110;9.372;2023-06-10T13:12:45;27.4563416763267;;;27.187;55.07913741091741
15558;BME280;7880;50.110;9.372;2023-06-10T13:17:50;27.748852367844666;;;27.5;52.73946703577933
15558;BME280;7880;50.110;9.372;2023-06-10T13:22:55;27.46642823559814;;;27.437;50.661421095273624
15558;BME280;7880;50.110;9.372;2023-06-10T13:27:58;26.689766578009586;;;26.812;51.98747096958027
15558;BME280;7880;50.110;9.372;2023-06-10T13:33:09;27.4059088974318;;;27.062;51.843181600339996
15558;BME280;7880;50.110;9.372;2023-06-10T13:38:08;26.639334241492907;;;26.625;51.49706296211178
15558;BME280;7880;50.110;9.372;2023-06-10T13:43:14;26.583858704939484;;;26.375;52.50613548270324
15558;BME280;7880;50.110;9.372;2023-06-10T13:48:14;26.911669204436475;;;26.687;54.197352313224684
15558;BME280;7880;50.110;9.372;2023-06-10T13:53:18;27.4059088974318;;;27.125;52.0577875238655
15558;BME280;7880;50.110;9.372;2023-06-10T13:58:22;27.46642823559814;;;27.312;50.43568609404828
15558;BME280;7880;50.110;9.372;2023-06-10T14:03:27;27.668159665499115;;;27.437;49.647499920970475
15558;BME280;7880;50.110;9.372;2023-06-10T14:08:38;27.64294321129564;;;27.562;49.9774513571122
15558;BME280;7880;50.110;9.372;2023-06-10T14:13:39;27.688332834100585;;;27.5;50.716729558836434
15558;BME280;7880;50.110;9.372;2023-06-10T14:18:41;28.293530057469617;;;28.062;48.27702508710612
15558;BME280;7880;50.110;9.372;2023-06-10T14:23:47;27.698419420147548;;;27.75;49.19635936353034
15558;BME280;7880;50.110;9.372;2023-06-10T14:28:52;27.340346328378654;;;27.312;49.14421440371127
15558;BME280;7880;50.110;9.372;2023-06-10T14:33:57;27.4059088974318;;;27.312;48.61144686275476
15558;BME280;7880;50.110;9.372;2023-06-10T14:39:01;27.607640187634388;;;27.312;49.90498376455169
15558;BME280;7880;50.110;9.372;2023-06-10T14:44:06;27.9758009926416;;;27.75;47.884455856933066
15558;BME280;7880;50.110;9.372;2023-06-10T14:49:13;27.703462713607585;;;27.562;49.33424095876741
15558;BME280;7880;50.110;9.372;2023-06-10T14:54:27;27.557207321427995;;;27.562;47.91483508829393
15558;BME280;7880;50.110;9.372;2023-06-10T14:59:31;27.18400501604774;;;27.25;48.788370813439975
15558;BME280;7880;50.110;9.372;2023-06-10T15:04:42;27.698419420147548;;;27.437;49.350657369155584
15558;BME280;7880;50.110;9.372;2023-06-10T15:09:40;27.78919874695712;;;27.625;50.09121025125596
15558;BME280;7880;50.110;9.372;2023-06-10T15:14:45;27.905194690660572;;;27.812;49.33884031384259
15558;BME280;7880;50.110;9.372;2023-06-10T15:19:56;27.052880260074744;;;27.125;48.02593139164342
15558;BME280;7880;50.110;9.372;2023-06-10T15:24:52;27.441211839602328;;;27.125;49.71373475021064
15558;BME280;7880;50.110;9.372;2023-06-10T15:30:07;27.627813342266016;;;27.5;51.32643145650517
15558;BME280;7880;50.110;9.372;2023-06-10T15:35:05;26.72002599388943;;;26.687;52.61464072080784
15558;BME280;7880;50.110;9.372;2023-06-10T15:40:08;26.417432306573026;;;26.375;55.25579423861019
15558;BME280;7880;50.110;9.372;2023-06-10T15:45:12;26.18040131665766;;;26.062;55.87205188777062
15558;BME280;7880;50.110;9.372;2023-06-10T15:50:16;25.872766309703003;;;25.75;57.459419210647894
15558;BME280;7880;50.110;9.372;2023-06-10T15:55:28;26.003889294998952;;;25.75;57.19651892877676
15558;BME280;7880;50.110;9.372;2023-06-10T16:00:32;26.614118084148505;;;26.25;57.523133327874724
15558;BME280;7880;50.110;9.372;2023-06-10T16:05:39;26.72002599388943;;;26.562;58.72310339477977
15558;BME280;7880;50.110;9.372;2023-06-10T16:10:36;26.538469655771042;;;26.312;59.43852173903978
15558;BME280;7880;50.110;9.372;2023-06-10T16:15:41;26.4930806301767;;;26.375;60.71838023106156
15558;BME280;7880;50.110;9.372;2023-06-10T16:20:47;26.377086560759928;;;26.25;60.92081501065345
15558;BME280;7880;50.110;9.372;2023-06-10T16:25:53;26.266135855816536;;;26.125;61.28211430295442
15558;BME280;7880;50.110;9.372;2023-06-10T16:31:03;26.311524763540366;;;26.062;60.46863091259417
15558;BME280;7880;50.110;9.372;2023-06-10T16:36:03;26.049278066516855;;;25.812;60.98676002814626
15558;BME280;7880;50.110;9.372;2023-06-10T16:41:09;25.701298087328905;;;25.687;60.48291175448849
15558;BME280;7880;50.110;9.372;2023-06-10T16:46:13;25.418880572129275;;;25.25;59.93362656797156
15558;BME280;7880;50.110;9.372;2023-06-10T16:51:17;25.59034824036644;;;25.375;60.54312823532321
15558;BME280;7880;50.110;9.372;2023-06-10T16:56:32;25.640779971523443;;;25.5;61.39835678900063
15558;BME280;7880;50.110;9.372;2023-06-10T17:01:26;25.408794249180936;;;25.25;63.98599992977823
15558;BME280;7880;50.110;9.372;2023-06-10T17:06:33;25.681125377403806;;;25.437;63.3075943446844
15558;BME280;7880;50.110;9.372;2023-06-10T17:11:38;25.580261897627498;;;25.375;63.241985309277396
15558;BME280;7880;50.110;9.372;2023-06-10T17:16:51;25.45922587556415;;;25.312;63.07700277708152
15558;BME280;7880;50.110;9.372;2023-06-10T17:21:56;25.368448969029124;;;25.187;64.62228310677348
15558;BME280;7880;50.110;9.372;2023-06-10T17:27:01;25.36340581031982;;;25.125;64.42552656296667
15558;BME280;7880;50.110;9.372;2023-06-10T17:32:06;25.469312204333256;;;25.25;64.65540832173188
15558;BME280;7880;50.110;9.372;2023-06-10T17:37:12;25.444096384593287;;;25.187;65.19971755811588
15558;BME280;7880;50.110;9.372;2023-06-10T17:42:19;25.252456392347813;;;25.062;66.01197899430366
15558;BME280;7880;50.110;9.372;2023-06-10T17:47:24;25.237326937174657;;;25.062;65.07293954638867
15558;BME280;7880;50.110;9.372;2023-06-10T17:52:28;25.22724063518108;;;24.937;65.48143077183197
15558;BME280;7880;50.110;9.372;2023-06-10T17:57:32;25.101161958486774;;;24.937;64.93403241600171
15558;BME280;7880;50.110;9.372;2023-06-10T18:02:40;24.677538937167263;;;24.562;64.77837753357495
15558;BME280;7880;50.110;9.372;2023-06-10T18:07:42;24.657366463565268;;;24.437;64.86981671366104
15558;BME280;7880;50.110;9.372;2023-06-10T18:12:50;24.349736818118252;;;24.25;66.01663347283777
15558;BME280;7880;50.110;9.372;2023-06-10T18:17:53;24.299305832019307;;;24.062;66.96030104662321
15558;BME280;7880;50.110;9.372;2023-06-10T18:22:57;24.173228494101203;;;24.0;68.83905064737851
15558;BME280;7880;50.110;9.372;2023-06-10T18:28:04;24.042108255624772;;;23.875;69.01491292583965
15558;BME280;7880;50.110;9.372;2023-06-10T18:33:06;23.956375898380067;;;23.75;71.05664772810566
15558;BME280;7880;50.110;9.372;2023-06-10T18:38:11;23.921074363961814;;;23.687;71.85207130262997
15558;BME280;7880;50.110;9.372;2023-06-10T18:43:16;23.653791780403118;;;23.5;73.43199996031548
15558;BME280;7880;50.110;9.372;2023-06-10T18:48:21;23.73448077608482;;;23.5;73.70946031312214
15558;BME280;7880;50.110;9.372;2023-06-10T18:53:26;23.593275082536273;;;23.375;74.72813341245025
15558;BME280;7880;50.110;9.372;2023-06-10T18:58:35;23.497457063291222;;;23.312;74.07553204962399
15558;BME280;7880;50.110;9.372;2023-06-10T19:03:34;23.346165667870082;;;23.187;76.02936014291198
15558;BME280;7880;50.110;9.372;2023-06-10T19:08:38;23.18983150111162;;;23.0;77.1904371143717
15558;BME280;7880;50.110;9.372;2023-06-10T19:13:47;23.11922906586551;;;22.875;78.05511670970601
15558;BME280;7880;50.110;9.372;2023-06-10T19:18:56;23.169659370934824;;;22.875;77.92437852518806
15558;BME280;7880;50.110;9.372;2023-06-10T19:23:51;23.05366971278563;;;22.812;79.30354968935774
15558;BME280;7880;50.110;9.372;2023-06-10T19:28:58;22.988110408891224;;;22.687;79.31915503106015
15558;BME280;7880;50.110;9.372;2023-06-10T19:34:04;22.756131728511537;;;22.5;79.95139449605728
15558;BME280;7880;50.110;9.372;2023-06-10T19:39:07;22.67544363621273;;;22.437;81.1477690689076
15558;BME280;7880;50.110;9.372;2023-06-10T19:44:10;22.61997061597649;;;22.312;81.22879359374814
15558;BME280;7880;50.110;9.372;2023-06-10T19:49:15;22.52919665882364;;;22.25;82.33680232730202
15558;BME280;7880;50.110;9.372;2023-06-10T19:54:28;22.483809715608366;;;22.187;83.2221218963188
15558;BME280;7880;50.110;9.372;2023-06-10T19:59:34;22.4384227959672;;;22.125;83.97227005767361
15558;BME280;7880;50.110;9.372;2023-06-10T20:04:34;22.287133234087378;;;21.937;85.37362716567412
15558;BME280;7880;50.110;9.372;2023-06-10T20:09:38;22.196359622688032;;;21.937;87.08680968253701
15558;BME280;7880;50.110;9.372;2023-06-10T20:14:47;22.115672047273257;;;21.812;86.37833030953242
15558;BME280;7880;50.110;9.372;2023-06-10T20:19:52;21.999683788145195;;;21.75;87.02222816611639
15558;BME280;7880;50.110;9.372;2023-06-10T20:24:51;21.96438304418698;;;21.687;87.771417763883
15558;BME280;7880;50.110;9.372;2023-06-10T20:29:55;21.969426006736466;;;21.625;87.5568349740877
15558;BME280;7880;50.110;9.372;2023-06-10T20:35:00;21.792922490672208;;;21.562;87.83299667219694
15558;BME280;7880;50.110;9.372;2023-06-10T20:40:05;21.641634046379476;;;21.437;88.84785643302497
15558;BME280;7880;50.110;9.372;2023-06-10T20:45:11;21.803008396271615;;;21.5;87.44162770392974
15558;BME280;7880;50.110;9.372;2023-06-10T20:50:11;21.666848768905037;;;21.437;87.22768280974297
15558;BME280;7880;50.110;9.372;2023-06-10T20:55:17;21.666848768905037;;;21.437;87.35669528472391
15558;BME280;7880;50.110;9.372;2023-06-10T21:00:21;21.67693465995253;;;21.437;87.87382031598656
15558;BME280;7880;50.110;9.372;2023-06-10T21:05:26;21.687020552164178;;;21.437;87.82119688899549
15558;BME280;7880;50.110;9.372;2023-06-10T21:10:35;21.535732291225578;;;21.312;88.43829812496529
15558;BME280;7880;50.110;9.372;2023-06-10T21:15:36;21.384444292221453;;;21.25;89.87086839120242
15558;BME280;7880;50.110;9.372;2023-06-10T21:20:39;21.455045325827086;;;21.187;91.29612149240198
15558;BME280;7880;50.110;9.372;2023-06-10T21:25:46;21.46513119242736;;;21.187;89.25739257722124
15558;BME280;7880;50.110;9.372;2023-06-10T21:30:48;21.379401363432407;;;21.187;89.66629736290733
15558;BME280;7880;50.110;9.372;2023-06-10T21:36:01;21.379401363432407;;;21.187;89.55893174062628
15558;BME280;7880;50.110;9.372;2023-06-10T21:40:57;21.228113635093905;;;21.062;89.24091294587872